Terminal Aerodrome Forecast
Issued by NWS

Home | Current Version | Previous Version | Text Only | Print | Product List | Glossary On
Versions: 1 2 3 4 5 6 7 8 9 10 11 12 13 14 15 16 17 18 19 20 21 22
000
FTUS42 KMLB 260534
TAFSUA
TAF
KSUA 260534Z 2606/2706 06007KT P6SM VCSH SCT025 BKN050
     FM261400 07011KT P6SM VCSH SCT025 BKN060
      AMD LTD TO CLD AND WIND TIL 261100=

USA.gov is the U.S. government's official web portal to all federal, state and local government web resources and services.